sensor_id;sensor_type;location;lat;lon;timestamp;P1;durP1;ratioP1;P2;durP2;ratioP2
286;SDS011;127;48.770;9.212;2022-10-16T00:02:03;4.03;;;1.80;;
286;SDS011;127;48.770;9.212;2022-10-16T00:04:36;3.00;;;2.40;;
286;SDS011;127;48.770;9.212;2022-10-16T00:07:08;8.33;;;2.13;;
286;SDS011;127;48.770;9.212;2022-10-16T00:09:41;4.47;;;2.03;;
286;SDS011;127;48.770;9.212;2022-10-16T00:12:11;6.23;;;2.00;;
286;SDS011;127;48.770;9.212;2022-10-16T00:14:40;10.97;;;2.53;;
286;SDS011;127;48.770;9.212;2022-10-16T00:17:09;21.03;;;2.80;;
286;SDS011;127;48.770;9.212;2022-10-16T00:19:40;6.17;;;2.17;;
286;SDS011;127;48.770;9.212;2022-10-16T00:22:14;5.13;;;2.33;;
286;SDS011;127;48.770;9.212;2022-10-16T00:24:42;4.63;;;2.47;;
286;SDS011;127;48.770;9.212;2022-10-16T00:27:11;7.43;;;2.83;;
286;SDS011;127;48.770;9.212;2022-10-16T00:29:40;7.47;;;2.50;;
286;SDS011;127;48.770;9.212;2022-10-16T00:32:09;5.90;;;2.60;;
286;SDS011;127;48.770;9.212;2022-10-16T00:34:42;6.40;;;2.33;;
286;SDS011;127;48.770;9.212;2022-10-16T00:37:13;4.57;;;2.30;;
286;SDS011;127;48.770;9.212;2022-10-16T00:39:51;6.60;;;2.50;;
286;SDS011;127;48.770;9.212;2022-10-16T00:42:24;6.50;;;2.33;;
286;SDS011;127;48.770;9.212;2022-10-16T00:44:56;7.27;;;2.90;;
286;SDS011;127;48.770;9.212;2022-10-16T00:47:26;6.20;;;2.40;;
286;SDS011;127;48.770;9.212;2022-10-16T00:50:04;4.63;;;2.23;;
286;SDS011;127;48.770;9.212;2022-10-16T00:52:43;3.77;;;2.60;;
286;SDS011;127;48.770;9.212;2022-10-16T00:55:16;4.57;;;2.70;;
286;SDS011;127;48.770;9.212;2022-10-16T00:57:47;3.30;;;2.50;;
286;SDS011;127;48.770;9.212;2022-10-16T01:00:18;7.13;;;2.43;;
286;SDS011;127;48.770;9.212;2022-10-16T01:05:53;6.97;;;2.93;;
286;SDS011;127;48.770;9.212;2022-10-16T01:08:52;5.23;;;3.10;;
286;SDS011;127;48.770;9.212;2022-10-16T01:11:32;11.00;;;2.83;;
286;SDS011;127;48.770;9.212;2022-10-16T01:14:09;2.57;;;2.20;;
286;SDS011;127;48.770;9.212;2022-10-16T01:16:44;3.30;;;2.37;;
286;SDS011;127;48.770;9.212;2022-10-16T01:19:26;3.77;;;2.87;;
286;SDS011;127;48.770;9.212;2022-10-16T01:22:10;8.63;;;2.90;;
286;SDS011;127;48.770;9.212;2022-10-16T01:24:43;3.23;;;2.53;;
286;SDS011;127;48.770;9.212;2022-10-16T01:27:19;3.83;;;2.30;;
286;SDS011;127;48.770;9.212;2022-10-16T01:29:59;3.70;;;2.47;;
286;SDS011;127;48.770;9.212;2022-10-16T01:32:36;6.90;;;2.13;;
286;SDS011;127;48.770;9.212;2022-10-16T01:35:09;7.10;;;2.77;;
286;SDS011;127;48.770;9.212;2022-10-16T01:37:48;3.80;;;2.47;;
286;SDS011;127;48.770;9.212;2022-10-16T01:40:24;5.87;;;2.13;;
286;SDS011;127;48.770;9.212;2022-10-16T01:42:59;8.10;;;2.67;;
286;SDS011;127;48.770;9.212;2022-10-16T01:45:45;8.80;;;2.93;;
286;SDS011;127;48.770;9.212;2022-10-16T01:48:23;3.23;;;2.10;;
286;SDS011;127;48.770;9.212;2022-10-16T01:50:54;2.43;;;1.77;;
286;SDS011;127;48.770;9.212;2022-10-16T01:53:26;2.80;;;2.10;;
286;SDS011;127;48.770;9.212;2022-10-16T01:56:04;2.50;;;2.20;;
286;SDS011;127;48.770;9.212;2022-10-16T01:58:39;8.03;;;3.17;;
286;SDS011;127;48.770;9.212;2022-10-16T02:01:26;8.07;;;3.10;;
286;SDS011;127;48.770;9.212;2022-10-16T02:04:00;7.07;;;2.50;;
286;SDS011;127;48.770;9.212;2022-10-16T02:06:39;10.30;;;2.60;;
286;SDS011;127;48.770;9.212;2022-10-16T02:09:07;7.07;;;3.73;;
286;SDS011;127;48.770;9.212;2022-10-16T02:11:40;7.20;;;2.60;;
286;SDS011;127;48.770;9.212;2022-10-16T02:14:18;3.80;;;2.10;;
286;SDS011;127;48.770;9.212;2022-10-16T02:16:49;2.67;;;2.03;;
286;SDS011;127;48.770;9.212;2022-10-16T02:19:19;3.53;;;1.83;;
286;SDS011;127;48.770;9.212;2022-10-16T02:21:50;7.37;;;2.30;;
286;SDS011;127;48.770;9.212;2022-10-16T02:24:26;3.00;;;2.00;;
286;SDS011;127;48.770;9.212;2022-10-16T02:27:01;9.40;;;2.03;;
286;SDS011;127;48.770;9.212;2022-10-16T02:29:38;5.47;;;2.10;;
286;SDS011;127;48.770;9.212;2022-10-16T02:32:10;3.60;;;1.90;;
286;SDS011;127;48.770;9.212;2022-10-16T02:34:43;2.07;;;1.80;;
286;SDS011;127;48.770;9.212;2022-10-16T02:37:12;2.40;;;1.57;;
286;SDS011;127;48.770;9.212;2022-10-16T02:39:42;4.83;;;1.57;;
286;SDS011;127;48.770;9.212;2022-10-16T02:42:11;4.53;;;2.00;;
286;SDS011;127;48.770;9.212;2022-10-16T02:44:43;3.97;;;1.70;;
286;SDS011;127;48.770;9.212;2022-10-16T02:47:12;12.40;;;2.10;;
286;SDS011;127;48.770;9.212;2022-10-16T02:49:47;4.00;;;1.43;;
286;SDS011;127;48.770;9.212;2022-10-16T02:52:22;2.63;;;1.83;;
286;SDS011;127;48.770;9.212;2022-10-16T02:54:54;5.53;;;1.80;;
286;SDS011;127;48.770;9.212;2022-10-16T02:57:25;5.20;;;2.10;;
286;SDS011;127;48.770;9.212;2022-10-16T02:59:57;4.80;;;1.70;;
286;SDS011;127;48.770;9.212;2022-10-16T03:02:25;3.70;;;2.00;;
286;SDS011;127;48.770;9.212;2022-10-16T03:04:54;6.03;;;2.10;;
286;SDS011;127;48.770;9.212;2022-10-16T03:07:23;9.53;;;2.00;;
286;SDS011;127;48.770;9.212;2022-10-16T03:09:52;6.10;;;1.90;;
286;SDS011;127;48.770;9.212;2022-10-16T03:12:22;4.80;;;1.87;;
286;SDS011;127;48.770;9.212;2022-10-16T03:14:57;5.70;;;2.20;;
286;SDS011;127;48.770;9.212;2022-10-16T03:17:35;2.60;;;1.80;;
286;SDS011;127;48.770;9.212;2022-10-16T03:20:06;2.30;;;1.70;;
286;SDS011;127;48.770;9.212;2022-10-16T03:22:39;5.93;;;1.80;;
286;SDS011;127;48.770;9.212;2022-10-16T03:25:08;4.07;;;2.33;;
286;SDS011;127;48.770;9.212;2022-10-16T03:27:40;7.67;;;2.67;;
286;SDS011;127;48.770;9.212;2022-10-16T03:30:22;8.30;;;1.77;;
286;SDS011;127;48.770;9.212;2022-10-16T03:32:51;7.20;;;2.50;;
286;SDS011;127;48.770;9.212;2022-10-16T03:35:20;8.90;;;3.00;;
286;SDS011;127;48.770;9.212;2022-10-16T03:37:49;4.80;;;1.90;;
286;SDS011;127;48.770;9.212;2022-10-16T03:40:17;56.90;;;3.80;;
286;SDS011;127;48.770;9.212;2022-10-16T03:42:46;6.97;;;2.43;;
286;SDS011;127;48.770;9.212;2022-10-16T03:45:15;13.73;;;2.63;;
286;SDS011;127;48.770;9.212;2022-10-16T03:47:46;8.30;;;2.83;;
286;SDS011;127;48.770;9.212;2022-10-16T03:50:15;6.60;;;2.20;;
286;SDS011;127;48.770;9.212;2022-10-16T03:52:44;4.90;;;2.60;;
286;SDS011;127;48.770;9.212;2022-10-16T03:55:12;5.53;;;2.50;;
286;SDS011;127;48.770;9.212;2022-10-16T03:57:41;10.37;;;2.50;;
286;SDS011;127;48.770;9.212;2022-10-16T04:00:10;7.17;;;2.80;;
286;SDS011;127;48.770;9.212;2022-10-16T04:02:40;8.27;;;2.90;;
286;SDS011;127;48.770;9.212;2022-10-16T04:05:11;4.73;;;2.90;;
286;SDS011;127;48.770;9.212;2022-10-16T04:07:39;10.70;;;2.90;;
286;SDS011;127;48.770;9.212;2022-10-16T04:10:08;4.40;;;2.40;;
286;SDS011;127;48.770;9.212;2022-10-16T04:12:37;5.07;;;2.57;;
286;SDS011;127;48.770;9.212;2022-10-16T04:15:07;11.40;;;3.40;;
286;SDS011;127;48.770;9.212;2022-10-16T04:17:36;6.33;;;2.23;;
286;SDS011;127;48.770;9.212;2022-10-16T04:20:05;4.50;;;2.40;;
286;SDS011;127;48.770;9.212;2022-10-16T04:22:37;8.00;;;2.73;;
286;SDS011;127;48.770;9.212;2022-10-16T04:25:06;10.10;;;2.33;;
286;SDS011;127;48.770;9.212;2022-10-16T04:27:36;13.83;;;2.40;;
286;SDS011;127;48.770;9.212;2022-10-16T04:30:05;4.57;;;2.60;;
286;SDS011;127;48.770;9.212;2022-10-16T04:32:34;20.63;;;3.40;;
286;SDS011;127;48.770;9.212;2022-10-16T04:35:03;4.10;;;2.50;;
286;SDS011;127;48.770;9.212;2022-10-16T04:37:33;3.37;;;2.20;;
286;SDS011;127;48.770;9.212;2022-10-16T04:40:04;4.63;;;2.10;;
286;SDS011;127;48.770;9.212;2022-10-16T04:42:33;2.07;;;1.80;;
286;SDS011;127;48.770;9.212;2022-10-16T04:45:02;4.13;;;2.27;;
286;SDS011;127;48.770;9.212;2022-10-16T04:47:32;9.57;;;2.47;;
286;SDS011;127;48.770;9.212;2022-10-16T04:50:01;6.10;;;2.57;;
286;SDS011;127;48.770;9.212;2022-10-16T04:52:30;5.90;;;2.20;;
286;SDS011;127;48.770;9.212;2022-10-16T04:54:59;5.67;;;2.10;;
286;SDS011;127;48.770;9.212;2022-10-16T04:57:30;5.43;;;2.07;;
286;SDS011;127;48.770;9.212;2022-10-16T04:59:59;3.03;;;1.93;;
286;SDS011;127;48.770;9.212;2022-10-16T05:02:28;22.83;;;2.43;;
286;SDS011;127;48.770;9.212;2022-10-16T05:04:57;5.87;;;2.13;;
286;SDS011;127;48.770;9.212;2022-10-16T05:07:25;4.83;;;1.97;;
286;SDS011;127;48.770;9.212;2022-10-16T05:09:54;5.60;;;1.90;;
286;SDS011;127;48.770;9.212;2022-10-16T05:12:23;8.70;;;2.10;;
286;SDS011;127;48.770;9.212;2022-10-16T05:14:54;6.33;;;2.50;;
286;SDS011;127;48.770;9.212;2022-10-16T05:17:23;4.67;;;2.60;;
286;SDS011;127;48.770;9.212;2022-10-16T05:19:52;6.50;;;2.13;;
286;SDS011;127;48.770;9.212;2022-10-16T05:22:21;6.77;;;2.70;;
286;SDS011;127;48.770;9.212;2022-10-16T05:24:50;6.77;;;2.73;;
286;SDS011;127;48.770;9.212;2022-10-16T05:27:21;7.43;;;2.63;;
286;SDS011;127;48.770;9.212;2022-10-16T05:29:50;4.43;;;3.20;;
286;SDS011;127;48.770;9.212;2022-10-16T05:32:21;3.90;;;2.50;;
286;SDS011;127;48.770;9.212;2022-10-16T05:34:50;6.30;;;3.10;;
286;SDS011;127;48.770;9.212;2022-10-16T05:37:19;6.40;;;2.50;;
286;SDS011;127;48.770;9.212;2022-10-16T05:39:47;9.50;;;2.50;;
286;SDS011;127;48.770;9.212;2022-10-16T05:42:16;6.10;;;2.90;;
286;SDS011;127;48.770;9.212;2022-10-16T05:44:45;4.83;;;2.80;;
286;SDS011;127;48.770;9.212;2022-10-16T05:47:16;4.30;;;2.17;;
286;SDS011;127;48.770;9.212;2022-10-16T05:49:46;6.63;;;2.97;;
286;SDS011;127;48.770;9.212;2022-10-16T05:52:14;2.90;;;2.20;;
286;SDS011;127;48.770;9.212;2022-10-16T05:54:43;5.90;;;3.60;;
286;SDS011;127;48.770;9.212;2022-10-16T05:57:11;7.10;;;2.10;;
286;SDS011;127;48.770;9.212;2022-10-16T05:59:40;5.93;;;2.40;;
286;SDS011;127;48.770;9.212;2022-10-16T06:02:10;10.73;;;2.27;;
286;SDS011;127;48.770;9.212;2022-10-16T06:04:43;5.83;;;2.70;;
286;SDS011;127;48.770;9.212;2022-10-16T06:07:12;10.80;;;2.20;;
286;SDS011;127;48.770;9.212;2022-10-16T06:09:40;6.73;;;2.33;;
286;SDS011;127;48.770;9.212;2022-10-16T06:12:09;3.07;;;2.00;;
286;SDS011;127;48.770;9.212;2022-10-16T06:14:38;9.03;;;2.47;;
286;SDS011;127;48.770;9.212;2022-10-16T06:17:06;6.90;;;3.00;;
286;SDS011;127;48.770;9.212;2022-10-16T06:19:35;5.93;;;1.90;;
286;SDS011;127;48.770;9.212;2022-10-16T06:22:06;3.20;;;1.80;;
286;SDS011;127;48.770;9.212;2022-10-16T06:24:35;5.60;;;2.17;;
286;SDS011;127;48.770;9.212;2022-10-16T06:27:04;2.13;;;1.57;;
286;SDS011;127;48.770;9.212;2022-10-16T06:29:33;7.00;;;1.97;;
286;SDS011;127;48.770;9.212;2022-10-16T06:32:01;9.63;;;2.00;;
286;SDS011;127;48.770;9.212;2022-10-16T06:34:30;4.00;;;1.97;;
286;SDS011;127;48.770;9.212;2022-10-16T06:36:59;7.30;;;2.40;;
286;SDS011;127;48.770;9.212;2022-10-16T06:39:30;2.87;;;1.73;;
286;SDS011;127;48.770;9.212;2022-10-16T06:41:58;7.77;;;2.53;;
286;SDS011;127;48.770;9.212;2022-10-16T06:44:27;7.33;;;2.63;;
286;SDS011;127;48.770;9.212;2022-10-16T06:46:56;26.43;;;2.90;;
286;SDS011;127;48.770;9.212;2022-10-16T06:49:24;2.53;;;1.77;;
286;SDS011;127;48.770;9.212;2022-10-16T06:51:53;9.83;;;2.27;;
286;SDS011;127;48.770;9.212;2022-10-16T06:54:24;6.67;;;2.27;;
286;SDS011;127;48.770;9.212;2022-10-16T06:56:56;5.63;;;1.73;;
286;SDS011;127;48.770;9.212;2022-10-16T06:59:25;2.93;;;2.20;;
286;SDS011;127;48.770;9.212;2022-10-16T07:01:53;7.90;;;2.03;;
286;SDS011;127;48.770;9.212;2022-10-16T07:04:22;3.57;;;2.00;;
286;SDS011;127;48.770;9.212;2022-10-16T07:06:51;8.10;;;2.27;;
286;SDS011;127;48.770;9.212;2022-10-16T07:09:19;5.00;;;1.90;;
286;SDS011;127;48.770;9.212;2022-10-16T07:11:50;2.53;;;2.00;;
286;SDS011;127;48.770;9.212;2022-10-16T07:14:21;3.90;;;1.60;;
286;SDS011;127;48.770;9.212;2022-10-16T07:16:50;3.10;;;1.83;;
286;SDS011;127;48.770;9.212;2022-10-16T07:19:19;4.07;;;2.07;;
286;SDS011;127;48.770;9.212;2022-10-16T07:21:48;3.53;;;1.63;;
286;SDS011;127;48.770;9.212;2022-10-16T07:24:17;6.03;;;1.70;;
286;SDS011;127;48.770;9.212;2022-10-16T07:26:45;6.43;;;2.00;;
286;SDS011;127;48.770;9.212;2022-10-16T07:29:15;2.40;;;1.67;;
286;SDS011;127;48.770;9.212;2022-10-16T07:31:48;3.57;;;2.30;;
286;SDS011;127;48.770;9.212;2022-10-16T07:34:17;5.60;;;1.50;;
286;SDS011;127;48.770;9.212;2022-10-16T07:36:47;2.70;;;1.70;;
286;SDS011;127;48.770;9.212;2022-10-16T07:39:16;11.23;;;1.70;;
286;SDS011;127;48.770;9.212;2022-10-16T07:41:45;16.27;;;2.40;;
286;SDS011;127;48.770;9.212;2022-10-16T07:44:15;4.90;;;1.87;;
286;SDS011;127;48.770;9.212;2022-10-16T07:46:44;7.50;;;2.27;;
286;SDS011;127;48.770;9.212;2022-10-16T07:49:15;9.97;;;2.00;;
286;SDS011;127;48.770;9.212;2022-10-16T07:51:44;4.40;;;1.83;;
286;SDS011;127;48.770;9.212;2022-10-16T07:54:13;3.70;;;2.00;;
286;SDS011;127;48.770;9.212;2022-10-16T07:56:41;10.60;;;1.70;;
286;SDS011;127;48.770;9.212;2022-10-16T07:59:10;2.40;;;1.67;;
286;SDS011;127;48.770;9.212;2022-10-16T08:01:39;3.27;;;2.00;;
286;SDS011;127;48.770;9.212;2022-10-16T08:04:09;4.33;;;2.23;;
286;SDS011;127;48.770;9.212;2022-10-16T08:06:40;6.80;;;2.03;;
286;SDS011;127;48.770;9.212;2022-10-16T08:09:09;6.63;;;2.00;;
286;SDS011;127;48.770;9.212;2022-10-16T08:11:38;6.60;;;1.90;;
286;SDS011;127;48.770;9.212;2022-10-16T08:14:07;6.20;;;2.33;;
286;SDS011;127;48.770;9.212;2022-10-16T08:16:39;4.83;;;2.10;;
286;SDS011;127;48.770;9.212;2022-10-16T08:19:10;5.33;;;2.00;;
286;SDS011;127;48.770;9.212;2022-10-16T08:21:46;6.30;;;2.13;;
286;SDS011;127;48.770;9.212;2022-10-16T08:24:15;5.03;;;1.77;;
286;SDS011;127;48.770;9.212;2022-10-16T08:26:43;7.53;;;1.80;;
286;SDS011;127;48.770;9.212;2022-10-16T08:29:13;3.33;;;1.80;;
286;SDS011;127;48.770;9.212;2022-10-16T08:31:41;8.33;;;2.03;;
286;SDS011;127;48.770;9.212;2022-10-16T08:34:13;2.33;;;1.87;;
286;SDS011;127;48.770;9.212;2022-10-16T08:36:44;9.03;;;1.80;;
286;SDS011;127;48.770;9.212;2022-10-16T08:39:14;8.03;;;1.90;;
286;SDS011;127;48.770;9.212;2022-10-16T08:41:52;2.93;;;2.03;;
286;SDS011;127;48.770;9.212;2022-10-16T08:47:47;7.53;;;2.20;;
286;SDS011;127;48.770;9.212;2022-10-16T08:50:20;2.63;;;1.43;;
286;SDS011;127;48.770;9.212;2022-10-16T08:52:55;6.87;;;1.70;;
286;SDS011;127;48.770;9.212;2022-10-16T08:55:32;6.10;;;2.13;;
286;SDS011;127;48.770;9.212;2022-10-16T08:58:09;2.00;;;1.60;;
286;SDS011;127;48.770;9.212;2022-10-16T09:00:40;5.00;;;1.90;;
286;SDS011;127;48.770;9.212;2022-10-16T09:03:13;6.80;;;2.00;;
286;SDS011;127;48.770;9.212;2022-10-16T09:05:54;9.97;;;2.10;;
286;SDS011;127;48.770;9.212;2022-10-16T09:08:36;3.00;;;1.70;;
286;SDS011;127;48.770;9.212;2022-10-16T09:11:12;5.47;;;1.80;;
286;SDS011;127;48.770;9.212;2022-10-16T09:13:50;6.80;;;1.83;;
286;SDS011;127;48.770;9.212;2022-10-16T09:16:30;3.37;;;1.97;;
286;SDS011;127;48.770;9.212;2022-10-16T09:19:09;3.80;;;1.80;;
286;SDS011;127;48.770;9.212;2022-10-16T09:21:45;2.27;;;1.90;;
286;SDS011;127;48.770;9.212;2022-10-16T09:24:17;3.77;;;1.93;;
286;SDS011;127;48.770;9.212;2022-10-16T09:26:49;3.20;;;1.80;;
286;SDS011;127;48.770;9.212;2022-10-16T09:29:18;9.63;;;1.77;;
286;SDS011;127;48.770;9.212;2022-10-16T09:31:50;9.80;;;2.07;;
286;SDS011;127;48.770;9.212;2022-10-16T09:34:21;7.90;;;1.60;;
286;SDS011;127;48.770;9.212;2022-10-16T09:37:09;8.50;;;2.20;;
286;SDS011;127;48.770;9.212;2022-10-16T09:39:47;3.43;;;1.80;;
286;SDS011;127;48.770;9.212;2022-10-16T09:42:17;3.10;;;1.50;;
286;SDS011;127;48.770;9.212;2022-10-16T09:44:50;4.60;;;1.63;;
286;SDS011;127;48.770;9.212;2022-10-16T09:47:22;7.73;;;1.87;;
286;SDS011;127;48.770;9.212;2022-10-16T09:49:53;5.10;;;1.77;;
286;SDS011;127;48.770;9.212;2022-10-16T09:52:24;11.67;;;2.23;;
286;SDS011;127;48.770;9.212;2022-10-16T09:54:56;5.70;;;1.67;;
286;SDS011;127;48.770;9.212;2022-10-16T09:57:27;2.70;;;1.60;;
286;SDS011;127;48.770;9.212;2022-10-16T09:59:57;4.90;;;2.20;;
286;SDS011;127;48.770;9.212;2022-10-16T10:02:27;8.03;;;2.00;;
286;SDS011;127;48.770;9.212;2022-10-16T10:04:58;9.37;;;2.77;;
286;SDS011;127;48.770;9.212;2022-10-16T10:07:27;3.40;;;1.97;;
286;SDS011;127;48.770;9.212;2022-10-16T10:10:03;7.47;;;3.03;;
286;SDS011;127;48.770;9.212;2022-10-16T10:12:33;3.00;;;1.73;;
286;SDS011;127;48.770;9.212;2022-10-16T10:15:04;3.70;;;1.70;;
286;SDS011;127;48.770;9.212;2022-10-16T10:17:44;3.57;;;1.60;;
286;SDS011;127;48.770;9.212;2022-10-16T10:20:21;1.80;;;1.73;;
286;SDS011;127;48.770;9.212;2022-10-16T10:22:52;2.80;;;2.13;;
286;SDS011;127;48.770;9.212;2022-10-16T10:25:42;9.87;;;2.10;;
286;SDS011;127;48.770;9.212;2022-10-16T10:28:21;3.97;;;2.33;;
286;SDS011;127;48.770;9.212;2022-10-16T10:31:14;2.80;;;1.87;;
286;SDS011;127;48.770;9.212;2022-10-16T10:33:49;4.93;;;2.17;;
286;SDS011;127;48.770;9.212;2022-10-16T10:36:27;6.07;;;2.27;;
286;SDS011;127;48.770;9.212;2022-10-16T10:38:58;8.00;;;2.40;;
286;SDS011;127;48.770;9.212;2022-10-16T10:41:37;3.30;;;1.90;;
286;SDS011;127;48.770;9.212;2022-10-16T10:44:37;3.87;;;1.80;;
286;SDS011;127;48.770;9.212;2022-10-16T10:47:24;5.17;;;2.30;;
286;SDS011;127;48.770;9.212;2022-10-16T10:50:07;6.23;;;1.90;;
286;SDS011;127;48.770;9.212;2022-10-16T10:52:49;5.10;;;2.33;;
286;SDS011;127;48.770;9.212;2022-10-16T10:55:36;5.83;;;3.00;;
286;SDS011;127;48.770;9.212;2022-10-16T10:58:19;6.07;;;3.10;;
286;SDS011;127;48.770;9.212;2022-10-16T11:01:04;9.23;;;2.80;;
286;SDS011;127;48.770;9.212;2022-10-16T11:03:46;7.60;;;2.53;;
286;SDS011;127;48.770;9.212;2022-10-16T11:06:29;5.57;;;2.67;;
286;SDS011;127;48.770;9.212;2022-10-16T11:09:02;12.17;;;2.90;;
286;SDS011;127;48.770;9.212;2022-10-16T11:11:40;19.23;;;3.53;;
286;SDS011;127;48.770;9.212;2022-10-16T11:14:15;5.60;;;2.80;;
286;SDS011;127;48.770;9.212;2022-10-16T11:16:49;13.33;;;2.67;;
286;SDS011;127;48.770;9.212;2022-10-16T11:19:25;7.53;;;2.80;;
286;SDS011;127;48.770;9.212;2022-10-16T11:22:04;5.93;;;2.50;;
286;SDS011;127;48.770;9.212;2022-10-16T11:24:40;10.53;;;2.60;;
286;SDS011;127;48.770;9.212;2022-10-16T11:27:14;6.17;;;1.73;;
286;SDS011;127;48.770;9.212;2022-10-16T11:29:49;3.67;;;1.70;;
286;SDS011;127;48.770;9.212;2022-10-16T11:32:23;19.60;;;2.30;;
286;SDS011;127;48.770;9.212;2022-10-16T11:34:57;3.23;;;1.90;;
286;SDS011;127;48.770;9.212;2022-10-16T11:37:33;4.50;;;1.87;;
286;SDS011;127;48.770;9.212;2022-10-16T11:40:11;8.03;;;2.00;;
286;SDS011;127;48.770;9.212;2022-10-16T11:42:50;4.80;;;1.83;;
286;SDS011;127;48.770;9.212;2022-10-16T11:45:29;5.40;;;2.00;;
286;SDS011;127;48.770;9.212;2022-10-16T11:48:05;4.83;;;2.03;;
286;SDS011;127;48.770;9.212;2022-10-16T11:50:43;4.33;;;2.13;;
286;SDS011;127;48.770;9.212;2022-10-16T11:53:23;5.97;;;1.70;;
286;SDS011;127;48.770;9.212;2022-10-16T11:56:03;7.80;;;2.07;;
286;SDS011;127;48.770;9.212;2022-10-16T11:58:33;3.90;;;1.47;;
286;SDS011;127;48.770;9.212;2022-10-16T12:01:10;3.10;;;1.63;;
286;SDS011;127;48.770;9.212;2022-10-16T12:03:46;5.33;;;1.63;;
286;SDS011;127;48.770;9.212;2022-10-16T12:06:27;4.20;;;2.00;;
286;SDS011;127;48.770;9.212;2022-10-16T12:09:02;4.13;;;2.10;;
286;SDS011;127;48.770;9.212;2022-10-16T12:11:32;5.60;;;2.07;;
286;SDS011;127;48.770;9.212;2022-10-16T12:14:04;6.60;;;1.97;;
286;SDS011;127;48.770;9.212;2022-10-16T12:16:57;2.87;;;1.57;;
286;SDS011;127;48.770;9.212;2022-10-16T12:19:27;13.27;;;2.10;;
286;SDS011;127;48.770;9.212;2022-10-16T12:21:57;4.30;;;1.90;;
286;SDS011;127;48.770;9.212;2022-10-16T12:24:32;5.50;;;1.60;;
286;SDS011;127;48.770;9.212;2022-10-16T12:27:04;4.00;;;2.07;;
286;SDS011;127;48.770;9.212;2022-10-16T12:29:36;1.83;;;1.57;;
286;SDS011;127;48.770;9.212;2022-10-16T12:32:22;6.43;;;2.33;;
286;SDS011;127;48.770;9.212;2022-10-16T12:34:56;1.97;;;1.37;;
286;SDS011;127;48.770;9.212;2022-10-16T12:37:26;6.63;;;1.93;;
286;SDS011;127;48.770;9.212;2022-10-16T12:39:57;6.40;;;2.47;;
286;SDS011;127;48.770;9.212;2022-10-16T12:42:33;5.27;;;2.00;;
286;SDS011;127;48.770;9.212;2022-10-16T12:45:12;15.53;;;2.23;;
286;SDS011;127;48.770;9.212;2022-10-16T12:47:55;6.67;;;2.00;;
286;SDS011;127;48.770;9.212;2022-10-16T12:50:31;6.33;;;1.97;;
286;SDS011;127;48.770;9.212;2022-10-16T12:53:02;3.70;;;1.97;;
286;SDS011;127;48.770;9.212;2022-10-16T12:55:34;4.30;;;2.10;;
286;SDS011;127;48.770;9.212;2022-10-16T12:58:19;3.60;;;1.83;;
286;SDS011;127;48.770;9.212;2022-10-16T13:01:07;6.17;;;2.07;;
286;SDS011;127;48.770;9.212;2022-10-16T13:03:52;5.97;;;1.93;;
286;SDS011;127;48.770;9.212;2022-10-16T13:06:32;4.87;;;2.40;;
286;SDS011;127;48.770;9.212;2022-10-16T13:09:19;4.93;;;2.33;;
286;SDS011;127;48.770;9.212;2022-10-16T13:18:02;5.03;;;2.40;;
286;SDS011;127;48.770;9.212;2022-10-16T13:20:45;9.23;;;2.23;;
286;SDS011;127;48.770;9.212;2022-10-16T13:23:26;2.20;;;2.00;;
286;SDS011;127;48.770;9.212;2022-10-16T13:26:05;2.77;;;2.00;;
286;SDS011;127;48.770;9.212;2022-10-16T13:28:41;4.20;;;1.90;;
286;SDS011;127;48.770;9.212;2022-10-16T13:31:12;5.50;;;2.27;;
286;SDS011;127;48.770;9.212;2022-10-16T13:33:45;11.70;;;2.40;;
286;SDS011;127;48.770;9.212;2022-10-16T13:36:23;3.93;;;2.03;;
286;SDS011;127;48.770;9.212;2022-10-16T13:41:39;5.67;;;2.40;;
286;SDS011;127;48.770;9.212;2022-10-16T13:44:13;5.50;;;2.97;;
286;SDS011;127;48.770;9.212;2022-10-16T13:46:44;19.17;;;2.93;;
286;SDS011;127;48.770;9.212;2022-10-16T13:49:14;12.47;;;2.70;;
286;SDS011;127;48.770;9.212;2022-10-16T13:51:56;4.07;;;2.40;;
286;SDS011;127;48.770;9.212;2022-10-16T13:54:26;11.63;;;2.90;;
286;SDS011;127;48.770;9.212;2022-10-16T13:57:04;5.40;;;2.50;;
286;SDS011;127;48.770;9.212;2022-10-16T13:59:33;4.33;;;2.07;;
286;SDS011;127;48.770;9.212;2022-10-16T14:02:05;5.53;;;2.17;;
286;SDS011;127;48.770;9.212;2022-10-16T14:04:44;7.40;;;2.37;;
286;SDS011;127;48.770;9.212;2022-10-16T14:07:18;7.83;;;2.27;;
286;SDS011;127;48.770;9.212;2022-10-16T14:09:51;2.87;;;2.53;;
286;SDS011;127;48.770;9.212;2022-10-16T14:12:21;3.60;;;2.00;;
286;SDS011;127;48.770;9.212;2022-10-16T14:14:51;6.33;;;1.83;;
286;SDS011;127;48.770;9.212;2022-10-16T14:17:22;4.23;;;1.97;;
286;SDS011;127;48.770;9.212;2022-10-16T14:19:54;3.23;;;2.20;;
286;SDS011;127;48.770;9.212;2022-10-16T14:22:29;6.50;;;2.03;;
286;SDS011;127;48.770;9.212;2022-10-16T14:25:00;7.47;;;2.40;;
286;SDS011;127;48.770;9.212;2022-10-16T14:27:30;2.37;;;2.10;;
286;SDS011;127;48.770;9.212;2022-10-16T14:30:12;20.53;;;2.67;;
286;SDS011;127;48.770;9.212;2022-10-16T14:32:52;4.87;;;2.10;;
286;SDS011;127;48.770;9.212;2022-10-16T14:35:32;4.10;;;1.87;;
286;SDS011;127;48.770;9.212;2022-10-16T14:38:04;6.93;;;1.90;;
286;SDS011;127;48.770;9.212;2022-10-16T14:40:35;11.80;;;2.63;;
286;SDS011;127;48.770;9.212;2022-10-16T14:43:05;12.30;;;2.97;;
286;SDS011;127;48.770;9.212;2022-10-16T14:45:34;3.27;;;1.83;;
286;SDS011;127;48.770;9.212;2022-10-16T14:48:06;4.53;;;2.47;;
286;SDS011;127;48.770;9.212;2022-10-16T14:50:45;4.70;;;2.20;;
286;SDS011;127;48.770;9.212;2022-10-16T14:53:17;11.93;;;2.60;;
286;SDS011;127;48.770;9.212;2022-10-16T14:55:46;8.73;;;2.90;;
286;SDS011;127;48.770;9.212;2022-10-16T14:58:15;9.00;;;2.90;;
286;SDS011;127;48.770;9.212;2022-10-16T15:00:46;10.97;;;4.00;;
286;SDS011;127;48.770;9.212;2022-10-16T15:03:15;7.27;;;3.93;;
286;SDS011;127;48.770;9.212;2022-10-16T15:05:44;8.27;;;3.83;;
286;SDS011;127;48.770;9.212;2022-10-16T15:08:13;7.07;;;2.90;;
286;SDS011;127;48.770;9.212;2022-10-16T15:10:44;12.27;;;3.43;;
286;SDS011;127;48.770;9.212;2022-10-16T15:13:13;13.37;;;3.03;;
286;SDS011;127;48.770;9.212;2022-10-16T15:15:43;14.03;;;3.60;;
286;SDS011;127;48.770;9.212;2022-10-16T15:18:14;9.63;;;3.50;;
286;SDS011;127;48.770;9.212;2022-10-16T15:20:47;23.43;;;3.73;;
286;SDS011;127;48.770;9.212;2022-10-16T15:23:17;7.40;;;4.23;;
286;SDS011;127;48.770;9.212;2022-10-16T15:28:21;13.27;;;4.20;;
286;SDS011;127;48.770;9.212;2022-10-16T15:30:52;6.00;;;3.10;;
286;SDS011;127;48.770;9.212;2022-10-16T15:33:23;8.30;;;2.90;;
286;SDS011;127;48.770;9.212;2022-10-16T15:35:53;5.27;;;2.77;;
286;SDS011;127;48.770;9.212;2022-10-16T15:38:22;12.20;;;2.70;;
286;SDS011;127;48.770;9.212;2022-10-16T15:41:00;12.03;;;3.00;;
286;SDS011;127;48.770;9.212;2022-10-16T15:43:28;14.03;;;3.40;;
286;SDS011;127;48.770;9.212;2022-10-16T15:46:01;10.70;;;3.10;;
286;SDS011;127;48.770;9.212;2022-10-16T15:48:31;5.73;;;3.20;;
286;SDS011;127;48.770;9.212;2022-10-16T15:51:01;10.17;;;2.97;;
286;SDS011;127;48.770;9.212;2022-10-16T15:53:33;4.80;;;2.40;;
286;SDS011;127;48.770;9.212;2022-10-16T15:56:05;14.83;;;2.67;;
286;SDS011;127;48.770;9.212;2022-10-16T15:58:35;3.80;;;2.23;;
286;SDS011;127;48.770;9.212;2022-10-16T16:01:05;4.83;;;2.30;;
286;SDS011;127;48.770;9.212;2022-10-16T16:03:35;13.53;;;2.67;;
286;SDS011;127;48.770;9.212;2022-10-16T16:06:05;11.07;;;3.57;;
286;SDS011;127;48.770;9.212;2022-10-16T16:08:36;8.93;;;2.90;;
286;SDS011;127;48.770;9.212;2022-10-16T16:11:09;10.60;;;2.83;;
286;SDS011;127;48.770;9.212;2022-10-16T16:13:39;10.87;;;2.50;;
286;SDS011;127;48.770;9.212;2022-10-16T16:16:09;9.03;;;2.77;;
286;SDS011;127;48.770;9.212;2022-10-16T16:18:38;17.43;;;3.87;;
286;SDS011;127;48.770;9.212;2022-10-16T16:21:07;21.17;;;4.20;;
286;SDS011;127;48.770;9.212;2022-10-16T16:23:38;20.77;;;3.27;;
286;SDS011;127;48.770;9.212;2022-10-16T16:26:10;13.83;;;2.77;;
286;SDS011;127;48.770;9.212;2022-10-16T16:28:40;9.70;;;2.80;;
286;SDS011;127;48.770;9.212;2022-10-16T16:31:10;8.33;;;2.80;;
286;SDS011;127;48.770;9.212;2022-10-16T16:33:39;17.63;;;3.60;;
286;SDS011;127;48.770;9.212;2022-10-16T16:36:07;8.20;;;2.70;;